createdAt,value
2016-09-30T12:19:23.773Z,56.08
2016-09-30T12:20:24.475Z,56.37
2016-09-30T12:21:25.203Z,56.37
2016-09-30T12:22:25.923Z,57.04
2016-09-30T12:23:26.829Z,57.17
2016-09-30T12:24:27.536Z,57.14
2016-09-30T12:25:28.231Z,57.65
2016-09-30T12:26:28.966Z,56.98
2016-09-30T12:27:29.689Z,56.68
2016-09-30T12:28:30.423Z,56.3
2016-09-30T12:29:31.146Z,56.59
2016-09-30T12:30:31.834Z,56.4
2016-09-30T12:31:32.516Z,56.01
2016-09-30T12:32:33.275Z,55.53
2016-09-30T12:33:33.951Z,56.27
2016-09-30T12:34:34.641Z,56.56
2016-09-30T12:35:35.328Z,57.23
2016-09-30T12:36:36.006Z,57.14
2016-09-30T12:37:36.706Z,56.37
2016-09-30T12:38:37.427Z,56.18
2016-09-30T12:39:38.117Z,55.51
2016-09-30T12:40:38.834Z,55.12
2016-09-30T12:41:39.523Z,55.32
2016-09-30T12:42:40.216Z,55.02
2016-09-30T12:43:40.921Z,54.74
2016-09-30T12:44:41.633Z,55.41
2016-09-30T12:45:42.349Z,55.79
2016-09-30T12:46:43.062Z,55.29
2016-09-30T12:47:43.789Z,56.37
2016-09-30T12:48:44.481Z,57.11
2016-09-30T12:49:45.168Z,57.68
2016-09-30T12:50:45.894Z,57.78
2016-09-30T12:51:46.580Z,57.21
2016-09-30T12:52:47.314Z,57.3
2016-09-30T12:53:47.995Z,57.78
2016-09-30T12:54:48.689Z,57.88
2016-09-30T12:55:49.388Z,58.26
2016-09-30T12:56:50.083Z,58.26
2016-09-30T12:57:50.774Z,58.17
2016-09-30T12:58:51.459Z,58.26
2016-09-30T12:59:52.139Z,56.05
2016-09-30T13:00:52.818Z,55.77
2016-09-30T13:01:53.519Z,54.8
2016-09-30T13:02:54.217Z,54.23
2016-09-30T13:03:54.895Z,53.46
2016-09-30T13:04:55.609Z,53.66
2016-09-30T13:05:56.306Z,53.27
2016-09-30T13:06:56.999Z,54.13
2016-09-30T13:07:57.690Z,55.19
2016-09-30T13:08:58.366Z,54.13
2016-09-30T13:09:59.060Z,53.85
2016-09-30T13:10:59.787Z,54.71
2016-09-30T13:12:00.488Z,54.61
2016-09-30T13:13:01.177Z,54.71
2016-09-30T13:14:01.867Z,54.8
2016-09-30T13:15:02.546Z,55.38
2016-09-30T13:16:03.219Z,55.86
2016-09-30T13:17:03.894Z,56.34
2016-09-30T13:18:04.598Z,56.24
2016-09-30T13:19:05.285Z,57.21
2016-09-30T13:20:05.965Z,57.46
2016-09-30T13:21:06.666Z,57.78
2016-09-30T13:22:07.367Z,57.68
2016-09-30T13:23:08.049Z,58.36
2016-09-30T13:24:08.729Z,58.26
2016-09-30T13:25:09.424Z,58.84
2016-09-30T13:26:10.150Z,58.55
2016-09-30T13:27:10.823Z,58.55
2016-09-30T13:28:11.506Z,58.91
2016-09-30T13:29:12.181Z,59.19
2016-09-30T13:30:12.884Z,59.09
2016-09-30T13:31:15.142Z,59.38
2016-09-30T13:32:17.023Z,59.96
2016-09-30T13:33:17.397Z,59.96
2016-09-30T13:34:17.432Z,60.05
2016-09-30T13:35:18.126Z,60.15
2016-09-30T13:36:18.876Z,60.15
2016-09-30T13:37:19.575Z,60.44
2016-09-30T13:38:20.297Z,60.35
2016-09-30T13:39:20.995Z,60.18
2016-09-30T13:40:21.669Z,59.96
2016-09-30T13:41:22.351Z,59.96
2016-09-30T13:42:23.046Z,59.67
2016-09-30T13:43:23.746Z,59.58
2016-09-30T13:44:24.455Z,58.91
2016-09-30T13:45:25.205Z,59.58
2016-09-30T13:46:25.963Z,59.61
2016-09-30T13:47:26.655Z,59.99
2016-09-30T13:48:27.349Z,59
2016-09-30T13:49:28.032Z,58.64
2016-09-30T13:50:28.715Z,58.91
2016-09-30T13:51:29.398Z,59.58
2016-09-30T13:52:30.092Z,59.58
2016-09-30T13:53:30.797Z,58.55
2016-09-30T13:54:31.506Z,58.62
2016-09-30T13:55:32.185Z,58.62
2016-09-30T13:56:32.881Z,58.62
2016-09-30T13:57:33.562Z,59
2016-09-30T13:58:34.250Z,59.19
2016-09-30T13:59:34.933Z,59.09
2016-09-30T14:00:35.659Z,58.94
2016-09-30T14:01:36.339Z,59.19
2016-09-30T14:02:37.085Z,58.84
2016-09-30T14:03:37.762Z,58.45
2016-09-30T14:04:38.467Z,59.09
2016-09-30T14:05:39.138Z,58.04
2016-09-30T14:06:39.836Z,57.56
2016-09-30T14:07:40.539Z,57.37
2016-09-30T14:08:41.234Z,57.46
2016-09-30T14:09:42.007Z,57.37
2016-09-30T14:10:42.681Z,57.46
2016-09-30T14:11:43.385Z,57.28
2016-09-30T14:12:44.071Z,58.04
2016-09-30T14:13:44.763Z,57.37
2016-09-30T14:14:45.442Z,58.14
2016-09-30T14:15:46.133Z,57.56
2016-09-30T14:16:46.839Z,57.37
2016-09-30T14:17:47.517Z,57.18
2016-09-30T14:18:48.212Z,57.65
2016-09-30T14:19:48.901Z,57.75
2016-09-30T14:20:49.600Z,57.08
2016-09-30T14:21:50.286Z,57.18
2016-09-30T14:22:50.959Z,57.75
2016-09-30T14:23:51.642Z,57.18
2016-09-30T14:24:52.333Z,57.28
2016-09-30T14:25:53.015Z,56.6
2016-09-30T14:26:53.704Z,56.79
2016-09-30T14:27:54.385Z,57.28
2016-09-30T14:28:55.067Z,56.6
2016-09-30T14:29:55.865Z,56.12
2016-09-30T14:30:56.563Z,56.22
2016-09-30T14:31:57.250Z,56.6
2016-09-30T14:32:57.940Z,55.57
2016-09-30T14:33:58.631Z,56.15
2016-09-30T14:34:59.365Z,55.29
2016-09-30T14:36:00.069Z,54.3
2016-09-30T14:37:00.762Z,54.33
2016-09-30T14:38:01.478Z,54.71
2016-09-30T14:39:02.179Z,53.34
2016-09-30T14:40:02.984Z,53.53
2016-09-30T14:41:04.877Z,53.63
2016-09-30T14:42:05.540Z,53.82
2016-09-30T14:43:07.333Z,54.11
2016-09-30T14:44:08.025Z,54.11
2016-09-30T14:45:08.717Z,53.66
2016-09-30T14:46:09.389Z,52.76
2016-09-30T14:47:10.095Z,52.12
2016-09-30T14:48:11.422Z,51.61
2016-09-30T14:49:12.112Z,52.38
2016-09-30T14:50:12.795Z,52.57
2016-09-30T14:51:13.471Z,52.67
2016-09-30T14:52:14.149Z,52.86
2016-09-30T14:53:14.842Z,53.15
2016-09-30T14:54:15.533Z,53.34
2016-09-30T14:55:16.254Z,52.86
2016-09-30T14:56:17.058Z,52.76
2016-09-30T14:57:17.744Z,53.15
2016-09-30T14:58:18.444Z,53.72
2016-09-30T14:59:19.127Z,55.16
2016-09-30T15:00:19.806Z,54.11
2016-09-30T15:01:20.528Z,54.49
2016-09-30T15:02:21.209Z,55.26
2016-09-30T15:03:21.900Z,56.12
2016-09-30T15:04:22.595Z,57.24
2016-09-30T15:05:23.302Z,58.01
2016-09-30T15:06:23.993Z,58.75
2016-09-30T15:07:24.713Z,59.04
2016-09-30T15:08:25.400Z,59.23
2016-09-30T15:09:26.092Z,60.19
2016-09-30T15:10:26.770Z,60.57
2016-09-30T15:11:27.485Z,59.9
2016-09-30T15:12:28.160Z,60
2016-09-30T15:13:28.846Z,60.25
2016-09-30T15:14:29.601Z,60.25
2016-09-30T15:15:30.297Z,59.87
2016-09-30T15:16:30.987Z,60.35
2016-09-30T15:17:31.670Z,61.11
2016-09-30T15:18:32.371Z,61.11
2016-09-30T15:19:33.057Z,60.54
2016-09-30T15:20:33.742Z,61.21
2016-09-30T15:21:34.453Z,61.4
2016-09-30T15:22:35.136Z,60.8
2016-09-30T15:23:35.821Z,61.76
2016-09-30T15:24:36.549Z,61.57
2016-09-30T15:25:37.248Z,62.04
2016-09-30T15:26:37.926Z,61.76
2016-09-30T15:27:38.717Z,61.85
2016-09-30T15:28:39.407Z,61.85
2016-09-30T15:29:40.092Z,61.66
2016-09-30T15:30:40.771Z,61.85
2016-09-30T15:31:41.457Z,62.04
2016-09-30T15:32:42.159Z,61.94
2016-09-30T15:33:42.875Z,62.04
2016-09-30T15:34:43.554Z,62.33
2016-09-30T15:35:44.231Z,63.19
2016-09-30T15:36:44.957Z,62.62
2016-09-30T15:37:45.652Z,62.71
2016-09-30T15:38:46.340Z,62.43
2016-09-30T15:39:47.041Z,62.9
2016-09-30T15:40:49.503Z,63
2016-09-30T15:41:49.271Z,63.29
2016-09-30T15:42:49.980Z,63.19
2016-09-30T15:43:50.656Z,63.48
2016-09-30T15:44:51.346Z,63.76
2016-09-30T15:45:52.060Z,63.57
2016-09-30T15:46:52.734Z,63.57
2016-09-30T15:47:53.453Z,63.29
2016-09-30T15:48:54.138Z,63.1
2016-09-30T15:49:54.829Z,63.48
2016-09-30T15:50:55.521Z,63.39
2016-09-30T15:51:56.243Z,63.29
2016-09-30T15:52:56.933Z,63.39
2016-09-30T15:53:57.641Z,63.76
2016-09-30T15:54:58.323Z,63.48
2016-09-30T15:55:59.008Z,63.67
2016-09-30T15:57:00.973Z,63.76
2016-09-30T15:58:00.878Z,63.76
2016-09-30T15:59:01.569Z,63.86
2016-09-30T16:00:02.303Z,63.96
2016-09-30T16:01:04.456Z,64.15
2016-09-30T16:02:05.940Z,64.05
2016-09-30T16:03:06.002Z,63.86
2016-09-30T16:04:06.725Z,63.76
2016-09-30T16:05:07.428Z,64.43
2016-09-30T16:06:08.157Z,63.96
2016-09-30T16:07:08.997Z,63.76
2016-09-30T16:08:10.535Z,64.53
2016-09-30T16:09:12.471Z,63.67
2016-09-30T16:10:14.172Z,63.86
2016-09-30T16:11:15.493Z,63.39
2016-09-30T16:12:17.856Z,64.25
2016-09-30T16:13:18.547Z,64.63
2016-09-30T16:14:19.245Z,64.43
2016-09-30T16:15:19.927Z,64.25
2016-09-30T16:16:20.632Z,65.49
2016-09-30T16:17:21.318Z,65.2
2016-09-30T16:18:22.003Z,65.3
2016-09-30T16:19:22.699Z,65.11
2016-09-30T16:20:23.401Z,65.11
2016-09-30T16:21:24.088Z,64.82
2016-09-30T16:22:24.782Z,64.53
2016-09-30T16:23:25.591Z,64.82
2016-09-30T16:24:26.170Z,64.92
2016-09-30T16:25:26.863Z,65.58
2016-09-30T16:26:27.570Z,65.01
2016-09-30T16:27:28.285Z,65.88
2016-09-30T16:28:29.014Z,65.78
2016-09-30T16:29:29.706Z,65.68
2016-09-30T16:30:30.402Z,66.64
2016-09-30T16:31:31.118Z,66.74
2016-09-30T16:32:31.813Z,66.16
2016-09-30T16:33:32.504Z,66.35
2016-09-30T16:34:33.202Z,66.7
2016-09-30T16:35:33.900Z,66.16
2016-09-30T16:36:34.606Z,65.84
2016-09-30T16:37:35.366Z,66.35
2016-09-30T16:38:36.111Z,66.32
2016-09-30T16:39:36.831Z,66.51
2016-09-30T16:40:37.537Z,66.25
2016-09-30T16:41:38.215Z,66.25
2016-09-30T16:42:38.956Z,66.41
2016-09-30T16:43:39.633Z,66.41
2016-09-30T16:44:40.335Z,67.18
2016-09-30T16:45:41.029Z,67.18
2016-09-30T16:46:41.732Z,66.7
2016-09-30T16:47:42.426Z,66.8
2016-09-30T16:48:43.140Z,67.37
2016-09-30T16:49:43.846Z,67.47
2016-09-30T16:50:44.545Z,67.56
2016-09-30T16:51:45.220Z,67.56
2016-09-30T16:52:45.915Z,67.27
2016-09-30T16:53:46.612Z,67.18
2016-09-30T16:54:47.312Z,67.47
2016-09-30T16:55:47.992Z,67.47
2016-09-30T16:56:48.687Z,67.37
2016-09-30T16:57:49.369Z,67.47
2016-09-30T16:58:50.054Z,67.37
2016-09-30T16:59:50.741Z,67.47
2016-09-30T17:00:51.448Z,67.18
2016-09-30T17:01:52.155Z,67.66
2016-09-30T17:02:52.903Z,67.27
2016-09-30T17:03:53.612Z,67.66
2016-09-30T17:04:54.300Z,67.94
2016-09-30T17:05:55.011Z,67.85
2016-09-30T17:06:55.719Z,68.23
2016-09-30T17:07:56.401Z,67.94
2016-09-30T17:08:57.091Z,68.04
2016-09-30T17:09:57.778Z,67.66
2016-09-30T17:10:58.456Z,67.76
2016-09-30T17:11:59.149Z,67.27
2016-09-30T17:13:00.323Z,67.56
2016-09-30T17:14:01.610Z,67.18
2016-09-30T17:15:02.404Z,67.27
2016-09-30T17:16:03.098Z,67.66
2016-09-30T17:17:03.861Z,67.66
2016-09-30T17:18:04.772Z,67.76
2016-09-30T17:19:05.482Z,67.76
2016-09-30T17:20:06.580Z,67.85
2016-09-30T17:21:07.317Z,68.23
2016-09-30T17:22:08.001Z,67.94
2016-09-30T17:23:08.748Z,67.76
2016-09-30T17:24:09.431Z,68.71
2016-09-30T17:25:10.124Z,68.42
2016-09-30T17:26:10.805Z,68.71
2016-09-30T17:27:11.492Z,69.09
2016-09-30T17:28:12.168Z,69.38
2016-09-30T17:29:12.853Z,69.38
2016-09-30T17:30:13.560Z,69.19
2016-09-30T17:31:14.245Z,69.38
2016-09-30T17:32:14.922Z,69.38
2016-09-30T17:33:15.633Z,69.82
2016-09-30T17:34:16.372Z,70.24
2016-09-30T17:35:17.065Z,69.54
2016-09-30T17:36:17.763Z,69.95
2016-09-30T17:37:18.454Z,70.15
2016-09-30T17:38:19.152Z,70.68
2016-09-30T17:39:19.837Z,71.07
2016-09-30T17:40:20.577Z,70.5
2016-09-30T17:41:21.263Z,70.87
2016-09-30T17:42:21.943Z,70.4
2016-09-30T17:43:22.658Z,70.11
2016-09-30T17:44:23.336Z,70.11
2016-09-30T17:45:24.045Z,70.4
2016-09-30T17:46:24.709Z,70.4
2016-09-30T17:47:25.398Z,71.26
2016-09-30T17:48:26.089Z,70.4
2016-09-30T17:49:26.765Z,70.5
2016-09-30T17:50:27.594Z,70.87
2016-09-30T17:51:28.274Z,70.5
2016-09-30T17:52:28.962Z,70.4
2016-09-30T17:53:29.724Z,70.78
2016-09-30T17:54:30.385Z,70.87
2016-09-30T17:55:31.055Z,70.68
2016-09-30T17:56:31.761Z,71.26
2016-09-30T17:57:32.455Z,71.55
2016-09-30T17:58:33.155Z,71.55
2016-09-30T17:59:33.849Z,71.93
2016-09-30T18:00:34.542Z,71.26
2016-09-30T18:01:35.257Z,71.64
2016-09-30T18:02:35.965Z,71.73
2016-09-30T18:03:36.687Z,71.45
2016-09-30T18:04:37.447Z,71.55
2016-09-30T18:05:38.206Z,71.64
2016-09-30T18:06:38.904Z,71.36
2016-09-30T18:07:39.599Z,71.16
2016-09-30T18:08:40.309Z,71.64
2016-09-30T18:09:41.002Z,71.93
2016-09-30T18:10:41.692Z,71.45
2016-09-30T18:11:42.369Z,71.73
2016-09-30T18:12:43.042Z,71.45
2016-09-30T18:13:43.721Z,72.31
2016-09-30T18:14:44.587Z,71.83
2016-09-30T18:15:45.283Z,72.02
2016-09-30T18:16:45.988Z,71.36
2016-09-30T18:17:46.678Z,71.64
2016-09-30T18:18:47.401Z,71.45
2016-09-30T18:19:48.228Z,71.55
2016-09-30T18:20:48.928Z,71.55
2016-09-30T18:21:49.605Z,71.64
2016-09-30T18:22:50.296Z,71.83
2016-09-30T18:23:50.978Z,71.45
2016-09-30T18:24:51.672Z,71.73
2016-09-30T18:25:52.367Z,71.55
2016-09-30T18:26:53.068Z,71.45
2016-09-30T18:27:53.755Z,71.93
2016-09-30T18:28:54.453Z,71.73
2016-09-30T18:29:55.129Z,71.45
2016-09-30T18:30:55.817Z,71.55
2016-09-30T18:31:56.558Z,70.87
2016-09-30T18:32:57.277Z,71.26
2016-09-30T18:33:58.134Z,71.73
2016-09-30T18:34:58.895Z,71.93
2016-09-30T18:35:59.583Z,70.87
2016-09-30T18:37:02.240Z,71.07
2016-09-30T18:38:02.260Z,71.55
2016-09-30T18:39:02.935Z,71.55
2016-09-30T18:40:03.767Z,71.45
2016-09-30T18:41:04.898Z,71.83
2016-09-30T18:42:05.861Z,71.55
2016-09-30T18:43:06.993Z,71.64
2016-09-30T18:44:08.181Z,71.64
2016-09-30T18:45:08.841Z,71.36
2016-09-30T18:46:09.539Z,71.73
2016-09-30T18:47:10.240Z,72.12
2016-09-30T18:48:10.977Z,72.5
2016-09-30T18:49:11.986Z,72.12
2016-09-30T18:50:13.229Z,72.31
2016-09-30T18:51:14.431Z,71.73
2016-09-30T18:52:15.171Z,71.93
2016-09-30T18:53:16.152Z,72.02
2016-09-30T18:54:16.883Z,72.22
2016-09-30T18:55:18.065Z,72.31
2016-09-30T18:56:18.643Z,72.41
2016-09-30T18:57:19.413Z,72.41
2016-09-30T18:58:20.352Z,72.69
2016-09-30T18:59:21.614Z,72.69
2016-09-30T19:00:22.335Z,72.5
2016-09-30T19:01:23.079Z,72.6
2016-09-30T19:02:23.949Z,72.31
2016-09-30T19:03:25.493Z,72.56
2016-09-30T19:04:26.242Z,72.79
2016-09-30T19:05:26.961Z,72.88
2016-09-30T19:06:27.693Z,73.27
2016-09-30T19:07:28.393Z,73.52
2016-09-30T19:08:29.084Z,73.52
2016-09-30T19:09:29.769Z,73.9
2016-09-30T19:10:30.464Z,73.14
2016-09-30T19:11:31.202Z,73.99
2016-09-30T19:12:31.920Z,72.94
2016-09-30T19:13:32.649Z,73.43
2016-09-30T19:14:33.405Z,73.61
2016-09-30T19:15:34.098Z,73.43
2016-09-30T19:16:34.820Z,73.43
2016-09-30T19:17:35.539Z,73.61
2016-09-30T19:18:36.245Z,73.9
2016-09-30T19:19:36.955Z,73.61
2016-09-30T19:20:37.652Z,74.09
2016-09-30T19:21:38.409Z,74.19
2016-09-30T19:22:39.133Z,74.76
2016-09-30T19:23:39.910Z,75.05
2016-09-30T19:24:40.639Z,74.95
2016-09-30T19:25:41.379Z,74.76
2016-09-30T19:26:42.069Z,74.95
2016-09-30T19:27:42.742Z,75.05
2016-09-30T19:28:43.474Z,74.95
2016-09-30T19:29:44.168Z,75.24
2016-09-30T19:30:44.901Z,74.95
2016-09-30T19:31:45.647Z,75.14
2016-09-30T19:32:46.433Z,75.05
2016-09-30T19:33:47.155Z,75.05
2016-09-30T19:34:47.897Z,75.43
2016-09-30T19:35:48.589Z,75.05
2016-09-30T19:36:49.338Z,75.62
2016-09-30T19:37:50.004Z,75.34
2016-09-30T19:38:50.702Z,75.43
2016-09-30T19:39:51.406Z,75.78
2016-09-30T19:40:52.123Z,75.68
2016-09-30T19:41:52.830Z,75.81
2016-09-30T19:42:53.546Z,75.91
2016-09-30T19:43:54.249Z,76
2016-09-30T19:44:54.950Z,76.39
2016-09-30T19:45:55.820Z,76.39
2016-09-30T19:46:56.994Z,76.45
2016-09-30T19:47:57.749Z,76.64
2016-09-30T19:48:58.446Z,76.73
2016-09-30T19:49:59.170Z,77.01
2016-09-30T19:50:59.990Z,77.4
2016-09-30T19:52:00.672Z,77.4
2016-09-30T19:53:01.399Z,77.4
2016-09-30T19:54:02.109Z,77.4
2016-09-30T19:55:02.856Z,77.78
2016-09-30T19:56:03.681Z,77.21
2016-09-30T19:57:04.423Z,77.21
2016-09-30T19:58:05.155Z,77.5
2016-09-30T19:59:05.893Z,77.4
2016-09-30T20:00:06.649Z,77.59
2016-09-30T20:01:07.401Z,77.69
2016-09-30T20:02:08.220Z,77.69
2016-09-30T20:03:09.078Z,77.5
2016-09-30T20:04:09.892Z,77.87
2016-09-30T20:05:10.717Z,77.97
2016-09-30T20:06:11.571Z,78.36
2016-09-30T20:07:12.481Z,77.97
2016-09-30T20:08:13.260Z,77.97
2016-09-30T20:09:14.165Z,78.16
2016-09-30T20:10:14.959Z,78.45
2016-09-30T20:11:15.922Z,78.93
2016-09-30T20:12:16.873Z,78.93
2016-09-30T20:13:17.667Z,78.64
2016-09-30T20:14:18.505Z,78.74
2016-09-30T20:15:19.443Z,78.83
2016-09-30T20:16:20.324Z,79.02
2016-09-30T20:17:21.080Z,78.83
2016-09-30T20:18:21.864Z,79.12
2016-09-30T20:19:22.694Z,79.12
2016-09-30T20:20:23.518Z,79.31
2016-09-30T20:21:24.269Z,79.6
2016-09-30T20:22:24.987Z,80.07
2016-09-30T20:23:25.679Z,79.98
2016-09-30T20:24:26.378Z,79.88
2016-09-30T20:25:27.086Z,79.79
2016-09-30T20:26:27.792Z,79.88
2016-09-30T20:27:28.486Z,80.27
2016-09-30T20:28:29.179Z,80.27
2016-09-30T20:29:29.916Z,80.17
2016-09-30T20:30:30.617Z,80.36
2016-09-30T20:31:31.317Z,80.65
2016-09-30T20:32:32.077Z,80.74
2016-09-30T20:33:32.841Z,81.13
2016-09-30T20:34:33.520Z,80.74
2016-09-30T20:35:34.222Z,80.84
2016-09-30T20:36:34.925Z,81.41
2016-09-30T20:37:35.615Z,81.03
2016-09-30T20:38:36.326Z,81.32
2016-09-30T20:39:37.060Z,81.51
2016-09-30T20:40:37.763Z,81.6
2016-09-30T20:41:38.505Z,81.89
2016-09-30T20:42:39.241Z,81.79
2016-09-30T20:43:39.970Z,81.99
2016-09-30T20:44:40.675Z,81.79
2016-09-30T20:45:41.425Z,81.41
2016-09-30T20:46:42.122Z,81.7
2016-09-30T20:47:42.876Z,81.7
2016-09-30T20:48:43.603Z,81.79
2016-09-30T20:49:44.305Z,81.89
2016-09-30T20:50:45.006Z,81.6
2016-09-30T20:51:45.715Z,81.51
2016-09-30T20:52:46.420Z,81.7
2016-09-30T20:53:47.120Z,81.51
2016-09-30T20:54:47.821Z,81.51
2016-09-30T20:55:48.537Z,81.6
2016-09-30T20:56:49.246Z,81.22
2016-09-30T20:57:49.959Z,81.6
2016-09-30T20:58:50.685Z,81.6
2016-09-30T20:59:51.371Z,81.6
2016-09-30T21:00:52.048Z,81.7
2016-09-30T21:01:52.773Z,81.79
2016-09-30T21:02:53.475Z,81.7
2016-09-30T21:03:54.182Z,81.51
2016-09-30T21:04:54.889Z,81.51
2016-09-30T21:05:55.584Z,81.89
2016-09-30T21:06:56.267Z,82.08
2016-09-30T21:07:56.974Z,81.7
2016-09-30T21:08:57.674Z,81.89
2016-09-30T21:09:58.353Z,81.6
2016-09-30T21:10:59.142Z,81.7
2016-09-30T21:11:59.902Z,81.13
2016-09-30T21:13:00.605Z,81.13
2016-09-30T21:14:01.284Z,81.41
2016-09-30T21:15:01.979Z,81.22
2016-09-30T21:16:02.781Z,81.13
2016-09-30T21:17:03.824Z,80.93
2016-09-30T21:18:04.556Z,81.03
2016-09-30T21:19:05.260Z,81.6
2016-09-30T21:20:06.003Z,81.51
2016-09-30T21:21:06.711Z,81.41
2016-09-30T21:22:07.394Z,81.6
2016-09-30T21:23:08.118Z,81.51
2016-09-30T21:24:08.842Z,81.7
2016-09-30T21:25:09.532Z,81.79
2016-09-30T21:26:10.227Z,81.51
2016-09-30T21:27:10.935Z,81.13
2016-09-30T21:28:11.711Z,80.93
2016-09-30T21:29:12.410Z,81.22
2016-09-30T21:30:13.223Z,80.93
2016-09-30T21:31:13.960Z,80.93
2016-09-30T21:32:14.727Z,81.22
2016-09-30T21:33:15.517Z,80.74
2016-09-30T21:34:16.315Z,81.13
2016-09-30T21:35:17.036Z,80.93
2016-09-30T21:36:17.745Z,80.84
2016-09-30T21:37:18.457Z,80.84
2016-09-30T21:38:19.208Z,80.93
2016-09-30T21:39:19.883Z,80.84
2016-09-30T21:40:20.613Z,81.13
2016-09-30T21:41:21.299Z,81.03
2016-09-30T21:42:22.048Z,80.93
2016-09-30T21:43:22.761Z,80.93
2016-09-30T21:44:23.535Z,81.13
2016-09-30T21:45:25.023Z,81.13
2016-09-30T21:46:25.706Z,81.22
2016-09-30T21:47:26.402Z,81.22
2016-09-30T21:48:27.105Z,81.6
2016-09-30T21:49:27.839Z,81.13
2016-09-30T21:50:28.539Z,81.51
2016-09-30T21:51:29.252Z,81.13
2016-09-30T21:52:29.952Z,81.41
2016-09-30T21:53:30.748Z,81.41
2016-09-30T21:54:32.225Z,81.22
2016-09-30T21:55:33.173Z,81.32
2016-09-30T21:56:33.885Z,81.7
2016-09-30T21:57:34.658Z,81.51
2016-09-30T21:58:35.366Z,81.6
2016-09-30T21:59:36.083Z,81.66
2016-09-30T22:00:36.777Z,81.79
2016-09-30T22:01:37.513Z,81.6
2016-09-30T22:02:38.247Z,81.79
2016-09-30T22:03:38.977Z,81.76
2016-09-30T22:04:39.730Z,81.7
2016-09-30T22:05:40.422Z,81.76
2016-09-30T22:06:41.119Z,81.89
2016-09-30T22:07:41.870Z,81.6
2016-09-30T22:08:42.698Z,81.66
2016-09-30T22:09:43.419Z,81.85
2016-09-30T22:10:44.169Z,81.95
2016-09-30T22:11:44.890Z,82.04
2016-09-30T22:12:45.605Z,81.56
2016-09-30T22:13:46.296Z,81.95
2016-09-30T22:14:47.017Z,82.52
2016-09-30T22:15:47.691Z,82.81
2016-09-30T22:16:48.393Z,82.52
2016-09-30T22:17:49.072Z,82.42
2016-09-30T22:18:49.817Z,81.09
2016-09-30T22:19:50.503Z,81.66
2016-09-30T22:20:51.231Z,82.52
2016-09-30T22:21:51.933Z,82.61
2016-09-30T22:22:52.715Z,82.9
2016-09-30T22:23:53.438Z,83.09
2016-09-30T22:24:54.210Z,83.28
2016-09-30T22:25:54.955Z,83.18
2016-09-30T22:26:55.704Z,83.76
2016-09-30T22:27:56.393Z,83.95
2016-09-30T22:28:57.083Z,84.33
2016-09-30T22:29:57.844Z,84.14
2016-09-30T22:30:58.542Z,84.14
2016-09-30T22:31:59.255Z,84.23
2016-09-30T22:32:59.937Z,84.91
2016-09-30T22:34:00.652Z,84.52
2016-09-30T22:35:01.356Z,84.81
2016-09-30T22:36:02.070Z,84.52
2016-09-30T22:37:02.781Z,84.67
2016-09-30T22:38:03.471Z,85.34
2016-09-30T22:39:04.158Z,85.25
2016-09-30T22:40:04.836Z,85.25
2016-09-30T22:41:05.531Z,84.96
2016-09-30T22:42:06.233Z,85.15
2016-09-30T22:43:06.909Z,85.38
2016-09-30T22:44:07.583Z,85.19
2016-09-30T22:45:08.275Z,85.86
2016-09-30T22:46:08.950Z,85.15
2016-09-30T22:47:09.640Z,85.15
2016-09-30T22:48:10.318Z,85.72
2016-09-30T22:49:10.997Z,85.19
2016-09-30T22:50:11.699Z,85.05
2016-09-30T22:51:12.388Z,85.72
2016-09-30T22:52:13.073Z,85.44
2016-09-30T22:53:13.780Z,85.72
2016-09-30T22:54:14.457Z,85.82
2016-09-30T22:55:15.159Z,85.72
2016-09-30T22:56:15.845Z,85.72
2016-09-30T22:57:16.524Z,86.2
2016-09-30T22:58:17.229Z,85.82
2016-09-30T22:59:17.918Z,86.01
2016-09-30T23:00:18.599Z,86.3
2016-09-30T23:01:19.277Z,85.72
2016-09-30T23:02:20.049Z,86.01
2016-09-30T23:03:20.658Z,86.3
2016-09-30T23:04:21.369Z,86.49
2016-09-30T23:05:22.066Z,87.06
2016-09-30T23:06:22.801Z,86.77
2016-09-30T23:07:23.513Z,86.77
2016-09-30T23:08:24.178Z,86.58
2016-09-30T23:09:24.865Z,86.49
2016-09-30T23:10:25.568Z,86.49
2016-09-30T23:11:26.316Z,86.68
2016-09-30T23:12:27.005Z,86.3
2016-09-30T23:13:27.700Z,86.2
2016-09-30T23:14:28.394Z,86.77
2016-09-30T23:15:29.068Z,87.06
2016-09-30T23:16:29.762Z,87.73
2016-09-30T23:17:30.449Z,87.25
2016-09-30T23:18:31.139Z,87.54
2016-09-30T23:19:31.819Z,87.21
2016-09-30T23:20:32.518Z,87.3
2016-09-30T23:21:33.214Z,87.78
2016-09-30T23:22:33.917Z,87.63
2016-09-30T23:23:34.620Z,87.73
2016-09-30T23:24:35.384Z,87.73
2016-09-30T23:25:36.064Z,87.82
2016-09-30T23:26:36.763Z,87.97
2016-09-30T23:27:37.495Z,87.78
2016-09-30T23:28:38.185Z,87.49
2016-09-30T23:29:38.878Z,87.49
2016-09-30T23:30:39.553Z,87.73
2016-09-30T23:31:40.225Z,87.49
2016-09-30T23:32:40.896Z,87.59
2016-09-30T23:33:41.572Z,87.59
2016-09-30T23:34:42.240Z,87.87
2016-09-30T23:35:42.912Z,87.87
2016-09-30T23:36:43.587Z,87.97
2016-09-30T23:37:44.263Z,87.78
2016-09-30T23:38:44.944Z,87.87
2016-09-30T23:39:45.627Z,87.68
2016-09-30T23:40:46.310Z,87.87
2016-09-30T23:41:47.006Z,87.78
2016-09-30T23:42:47.679Z,87.87
2016-09-30T23:43:48.404Z,88.07
2016-09-30T23:44:49.098Z,87.4
2016-09-30T23:45:49.789Z,87.68
2016-09-30T23:46:50.469Z,87.78
2016-09-30T23:47:51.139Z,87.59
2016-09-30T23:48:51.831Z,87.87
2016-09-30T23:49:52.513Z,87.78
2016-09-30T23:50:53.206Z,87.78
2016-09-30T23:51:53.909Z,87.78
2016-09-30T23:52:54.603Z,88.07
2016-09-30T23:53:55.295Z,88.45
2016-09-30T23:54:55.984Z,88.26
2016-09-30T23:55:56.661Z,88.45
2016-09-30T23:56:57.347Z,88.35
2016-09-30T23:57:58.044Z,88.35
2016-09-30T23:58:58.737Z,88.16
2016-09-30T23:59:59.429Z,88.73
